createdAt,value
2023-08-29T00:01:59.133Z,99.90
2023-08-29T00:04:33.398Z,99.90
2023-08-29T00:07:08.087Z,99.90
2023-08-29T00:09:42.226Z,99.90
2023-08-29T00:12:17.954Z,99.90
2023-08-29T00:14:52.235Z,99.90
2023-08-29T00:17:27.670Z,99.90
2023-08-29T00:20:03.946Z,99.90
2023-08-29T00:22:38.111Z,99.90
2023-08-29T00:25:12.286Z,99.90
2023-08-29T00:27:48.149Z,99.90
2023-08-29T00:30:22.260Z,99.90
2023-08-29T00:32:56.420Z,99.90
2023-08-29T00:35:30.595Z,99.90
2023-08-29T00:38:05.663Z,99.90
2023-08-29T00:40:40.416Z,99.90
2023-08-29T00:43:16.071Z,99.90
2023-08-29T00:45:50.507Z,99.90
2023-08-29T00:48:26.230Z,99.90
2023-08-29T00:51:01.089Z,99.90
2023-08-29T00:53:36.371Z,99.90
2023-08-29T00:56:11.088Z,99.90
2023-08-29T00:58:46.754Z,99.90
2023-08-29T01:01:21.119Z,99.90
2023-08-29T01:03:55.433Z,99.90
2023-08-29T01:06:32.008Z,99.90
2023-08-29T01:09:07.464Z,99.90
2023-08-29T01:11:48.946Z,99.90
2023-08-29T01:14:40.213Z,99.90
2023-08-29T01:17:28.251Z,99.90
2023-08-29T01:20:03.703Z,99.90
2023-08-29T01:22:44.988Z,99.90
2023-08-29T01:25:33.618Z,99.90
2023-08-29T01:28:09.599Z,99.90
2023-08-29T01:30:44.720Z,99.90
2023-08-29T01:33:19.349Z,99.90
2023-08-29T01:35:53.529Z,99.90
2023-08-29T01:38:27.707Z,99.90
2023-08-29T01:41:02.005Z,99.90
2023-08-29T01:43:37.539Z,99.90
2023-08-29T01:46:11.734Z,99.90
2023-08-29T01:48:46.434Z,99.90
2023-08-29T01:51:20.593Z,99.90
2023-08-29T01:53:55.097Z,99.90
2023-08-29T01:56:31.760Z,99.90
2023-08-29T01:59:08.036Z,99.90
2023-08-29T02:01:43.742Z,99.90
2023-08-29T02:04:17.928Z,99.90
2023-08-29T02:06:52.101Z,99.90
2023-08-29T02:09:26.341Z,99.90
2023-08-29T02:12:00.506Z,99.90
2023-08-29T02:14:36.096Z,99.90
2023-08-29T02:17:10.317Z,99.90
2023-08-29T02:19:44.456Z,99.90
2023-08-29T02:22:18.748Z,99.90
2023-08-29T02:24:52.939Z,99.90
2023-08-29T02:27:27.058Z,99.90
2023-08-29T02:30:04.418Z,99.90
2023-08-29T02:32:39.912Z,99.90
2023-08-29T02:35:14.205Z,99.90
2023-08-29T02:37:48.327Z,99.90
2023-08-29T02:40:23.557Z,99.90
2023-08-29T02:42:57.712Z,99.90
2023-08-29T02:45:33.204Z,99.90
2023-08-29T02:48:08.563Z,99.90
2023-08-29T02:50:44.288Z,99.90
2023-08-29T02:53:18.979Z,99.90
2023-08-29T02:55:54.821Z,99.90
2023-08-29T02:58:28.982Z,99.90
2023-08-29T03:01:07.278Z,99.90
2023-08-29T03:03:41.801Z,99.90
2023-08-29T03:06:16.153Z,99.90
2023-08-29T03:08:50.441Z,99.90
2023-08-29T03:11:24.618Z,99.90
2023-08-29T03:13:58.728Z,99.90
2023-08-29T03:16:34.288Z,99.90
2023-08-29T03:19:08.532Z,99.90
2023-08-29T03:21:42.680Z,99.90
2023-08-29T03:24:16.838Z,99.90
2023-08-29T03:26:51.695Z,99.90
2023-08-29T03:29:25.808Z,99.90
2023-08-29T03:32:01.311Z,99.90
2023-08-29T03:34:35.424Z,99.90
2023-08-29T03:37:09.612Z,99.90
2023-08-29T03:39:43.723Z,99.90
2023-08-29T03:42:17.855Z,99.90
2023-08-29T03:44:52.015Z,99.90
2023-08-29T03:47:27.530Z,99.90
2023-08-29T03:50:02.004Z,99.90
2023-08-29T03:52:36.145Z,99.90
2023-08-29T03:55:10.843Z,99.90
2023-08-29T03:57:44.944Z,99.90
2023-08-29T04:00:19.919Z,99.90
2023-08-29T04:02:55.570Z,99.90
2023-08-29T04:05:30.434Z,99.90
2023-08-29T04:08:06.082Z,99.90
2023-08-29T04:10:41.387Z,99.90
2023-08-29T04:13:15.822Z,99.90
2023-08-29T04:15:49.963Z,99.90
2023-08-29T04:18:25.485Z,99.90
2023-08-29T04:20:59.637Z,99.90
2023-08-29T04:23:33.797Z,99.90
2023-08-29T04:26:08.090Z,99.90
2023-08-29T04:28:42.230Z,99.90
2023-08-29T04:31:16.403Z,99.90
2023-08-29T04:33:52.036Z,99.90
2023-08-29T04:36:26.729Z,99.90
2023-08-29T04:39:00.860Z,99.90
2023-08-29T04:41:34.980Z,99.90
2023-08-29T04:44:09.516Z,99.90
2023-08-29T04:46:43.660Z,99.90
2023-08-29T04:49:19.162Z,99.90
2023-08-29T04:51:53.404Z,99.90
2023-08-29T04:54:28.316Z,99.90
2023-08-29T04:57:04.195Z,99.90
2023-08-29T04:59:38.406Z,99.90
2023-08-29T05:02:12.513Z,99.90
2023-08-29T05:04:48.813Z,99.90
2023-08-29T05:07:23.058Z,99.90
2023-08-29T05:09:58.261Z,99.90
2023-08-29T05:12:32.740Z,99.90
2023-08-29T05:15:08.029Z,99.90
2023-08-29T05:17:42.202Z,99.90
2023-08-29T05:20:18.388Z,99.90
2023-08-29T05:22:52.553Z,99.90
2023-08-29T05:25:26.662Z,99.90
2023-08-29T05:28:00.930Z,99.90
2023-08-29T05:30:36.287Z,99.90
2023-08-29T05:33:10.631Z,99.90
2023-08-29T05:35:46.139Z,99.90
2023-08-29T05:38:21.908Z,99.90
2023-08-29T05:40:57.405Z,99.90
2023-08-29T05:43:31.769Z,99.90
2023-08-29T05:46:05.913Z,99.90
2023-08-29T05:48:39.999Z,99.90
2023-08-29T05:51:15.507Z,99.90
2023-08-29T05:53:50.081Z,99.90
2023-08-29T05:56:24.259Z,99.90
2023-08-29T05:58:58.380Z,99.90
2023-08-29T06:01:32.514Z,99.90
2023-08-29T06:04:07.438Z,99.90
2023-08-29T06:06:44.742Z,99.90
2023-08-29T06:09:20.034Z,99.90
2023-08-29T06:11:54.199Z,99.90
2023-08-29T06:14:28.403Z,99.90
2023-08-29T06:17:02.538Z,99.90
2023-08-29T06:19:36.725Z,99.90
2023-08-29T06:22:15.087Z,99.90
2023-08-29T06:24:49.687Z,99.90
2023-08-29T06:27:23.813Z,99.90
2023-08-29T06:29:58.159Z,99.90
2023-08-29T06:32:32.414Z,99.90
2023-08-29T06:35:08.845Z,99.90
2023-08-29T06:37:44.358Z,99.90
2023-08-29T06:40:18.674Z,99.90
2023-08-29T06:42:52.795Z,99.90
2023-08-29T06:45:27.015Z,99.90
2023-08-29T06:48:01.180Z,99.90
2023-08-29T06:50:35.944Z,99.90
2023-08-29T06:53:11.453Z,99.90
2023-08-29T06:55:47.927Z,99.90
2023-08-29T06:58:22.047Z,99.90
2023-08-29T07:00:56.289Z,99.90
2023-08-29T07:06:04.768Z,99.90
2023-08-29T07:08:41.176Z,99.90
2023-08-29T07:11:15.393Z,99.90
2023-08-29T07:13:49.631Z,99.90
2023-08-29T07:16:24.602Z,99.90
2023-08-29T07:18:59.922Z,99.90
2023-08-29T07:21:34.165Z,99.90
2023-08-29T07:24:10.054Z,99.90
2023-08-29T07:26:44.188Z,99.90
2023-08-29T07:29:18.270Z,99.90
2023-08-29T07:31:52.412Z,99.90
2023-08-29T07:34:26.565Z,99.90
2023-08-29T07:37:00.771Z,99.90
2023-08-29T07:39:36.580Z,99.90
2023-08-29T07:42:10.933Z,99.90
2023-08-29T07:44:45.106Z,99.90
2023-08-29T07:47:19.292Z,99.90
2023-08-29T07:49:53.450Z,99.90
2023-08-29T07:52:27.619Z,99.90
2023-08-29T07:55:03.139Z,99.90
2023-08-29T07:57:37.300Z,99.90
2023-08-29T08:00:13.319Z,99.90
2023-08-29T08:02:47.525Z,99.90
2023-08-29T08:05:21.789Z,99.90
2023-08-29T08:07:57.687Z,99.90
2023-08-29T08:10:35.158Z,99.90
2023-08-29T08:13:09.457Z,99.90
2023-08-29T08:15:43.675Z,99.90
2023-08-29T08:18:18.126Z,99.90
2023-08-29T08:20:52.479Z,99.90
2023-08-29T08:23:26.618Z,99.90
2023-08-29T08:26:02.170Z,99.90
2023-08-29T08:28:37.396Z,99.90
2023-08-29T08:31:11.667Z,99.90
2023-08-29T08:33:45.819Z,99.90
2023-08-29T08:36:19.985Z,99.90
2023-08-29T08:38:54.099Z,99.90
2023-08-29T08:41:29.930Z,99.90
2023-08-29T08:44:07.351Z,99.90
2023-08-29T08:46:43.973Z,99.90
2023-08-29T08:49:18.889Z,99.90
2023-08-29T08:51:53.065Z,99.90
2023-08-29T08:54:27.243Z,99.90
2023-08-29T08:57:02.950Z,99.90
2023-08-29T08:59:37.462Z,99.90
2023-08-29T09:02:15.684Z,99.90
2023-08-29T09:04:49.997Z,99.90
2023-08-29T09:07:24.175Z,99.90
2023-08-29T09:10:10.679Z,99.90
2023-08-29T09:12:50.548Z,99.90
2023-08-29T09:15:27.802Z,99.90
2023-08-29T09:18:02.183Z,99.90
2023-08-29T09:20:36.544Z,99.90
2023-08-29T09:23:22.537Z,99.90
2023-08-29T09:25:57.327Z,99.90
2023-08-29T09:28:33.344Z,99.90
2023-08-29T09:31:09.209Z,99.90
2023-08-29T09:33:43.520Z,99.90
2023-08-29T09:36:17.875Z,99.90
2023-08-29T09:38:52.146Z,99.90
2023-08-29T09:41:26.380Z,99.90
2023-08-29T09:44:01.884Z,99.90
2023-08-29T09:46:37.035Z,99.90
2023-08-29T09:49:11.317Z,99.90
2023-08-29T09:51:46.358Z,99.90
2023-08-29T09:54:23.130Z,99.90
2023-08-29T09:56:59.795Z,99.90
2023-08-29T09:59:37.517Z,99.90
2023-08-29T10:02:13.818Z,99.90
2023-08-29T10:04:55.324Z,99.80
2023-08-29T10:07:38.898Z,99.40
2023-08-29T10:10:13.505Z,98.80
2023-08-29T10:12:50.170Z,98.60
2023-08-29T10:15:26.795Z,98.50
2023-08-29T10:18:01.320Z,98.50
2023-08-29T10:20:37.555Z,98.20
2023-08-29T10:23:14.833Z,98.30
2023-08-29T10:25:49.437Z,98.30
2023-08-29T10:28:24.835Z,98.10
2023-08-29T10:31:04.946Z,98.20
2023-08-29T10:33:39.305Z,97.70
2023-08-29T10:36:15.086Z,97.50
2023-08-29T10:38:49.685Z,97.60
2023-08-29T10:41:24.117Z,97.50
2023-08-29T10:44:26.396Z,96.90
2023-08-29T10:47:17.550Z,97.30
2023-08-29T10:50:00.389Z,97.60
2023-08-29T10:52:41.175Z,98.20
2023-08-29T10:55:23.648Z,98.50
2023-08-29T10:57:59.869Z,98.90
2023-08-29T11:00:36.537Z,99.00
2023-08-29T11:03:12.134Z,98.90
2023-08-29T11:05:58.501Z,98.80
2023-08-29T11:08:32.857Z,98.90
2023-08-29T11:11:18.430Z,98.90
2023-08-29T11:14:01.232Z,99.00
2023-08-29T11:16:38.075Z,98.70
2023-08-29T11:19:16.039Z,98.70
2023-08-29T11:21:51.254Z,98.60
2023-08-29T11:24:25.428Z,98.40
2023-08-29T11:27:00.172Z,98.80
2023-08-29T11:29:38.253Z,98.60
2023-08-29T11:32:12.348Z,98.90
2023-08-29T11:34:52.979Z,98.90
2023-08-29T11:37:32.466Z,98.40
2023-08-29T11:40:14.229Z,98.40
2023-08-29T11:43:10.559Z,98.20
2023-08-29T11:45:59.459Z,98.40
2023-08-29T11:48:35.964Z,98.60
2023-08-29T11:51:11.544Z,98.70
2023-08-29T11:53:45.684Z,98.90
2023-08-29T11:56:19.869Z,99.20
2023-08-29T11:58:57.386Z,99.00
2023-08-29T12:01:38.609Z,99.00
2023-08-29T12:04:12.823Z,99.10
2023-08-29T12:06:48.304Z,99.10
2023-08-29T12:09:25.778Z,99.20
2023-08-29T12:11:59.911Z,99.20
2023-08-29T12:14:50.419Z,99.10
2023-08-29T12:17:24.954Z,98.90
2023-08-29T12:19:59.221Z,99.00
2023-08-29T12:22:37.757Z,98.50
2023-08-29T12:25:11.939Z,98.00
2023-08-29T12:27:46.251Z,97.70
2023-08-29T12:30:21.492Z,97.80
2023-08-29T12:32:55.778Z,97.50
2023-08-29T12:35:29.956Z,97.40
2023-08-29T12:38:06.140Z,97.40
2023-08-29T12:40:40.738Z,97.50
2023-08-29T12:43:17.871Z,97.10
2023-08-29T12:45:59.296Z,97.00
2023-08-29T12:48:34.332Z,96.80
2023-08-29T12:51:08.895Z,96.30
2023-08-29T12:53:45.275Z,96.30
2023-08-29T12:56:19.366Z,96.40
2023-08-29T12:58:54.467Z,96.50
2023-08-29T13:01:29.453Z,96.10
2023-08-29T13:04:04.980Z,95.40
2023-08-29T13:06:39.358Z,95.00
2023-08-29T13:09:30.714Z,95.10
2023-08-29T13:12:09.737Z,94.90
2023-08-29T13:14:43.826Z,94.20
2023-08-29T13:17:18.093Z,94.60
2023-08-29T13:19:52.511Z,95.10
2023-08-29T13:22:26.634Z,95.00
2023-08-29T13:25:02.327Z,95.00
2023-08-29T13:27:36.536Z,95.20
2023-08-29T13:30:12.888Z,95.30
2023-08-29T13:32:47.190Z,95.10
2023-08-29T13:35:21.894Z,94.90
2023-08-29T13:37:56.007Z,95.20
2023-08-29T13:40:31.515Z,95.30
2023-08-29T13:43:05.869Z,95.20
2023-08-29T13:45:40.079Z,95.40
2023-08-29T13:48:14.867Z,95.30
2023-08-29T13:50:49.003Z,94.90
2023-08-29T13:53:23.202Z,95.10
2023-08-29T13:55:58.726Z,95.10
2023-08-29T13:58:32.895Z,95.20
2023-08-29T14:01:07.039Z,95.00
2023-08-29T14:03:41.333Z,95.20
2023-08-29T14:06:15.559Z,95.40
2023-08-29T14:08:50.400Z,95.50
2023-08-29T14:11:25.904Z,95.60
2023-08-29T14:14:00.135Z,95.80
2023-08-29T14:16:34.238Z,95.90
2023-08-29T14:19:08.912Z,95.70
2023-08-29T14:21:43.019Z,95.60
2023-08-29T14:24:17.266Z,95.70
2023-08-29T14:26:52.730Z,95.60
2023-08-29T14:29:30.781Z,95.60
2023-08-29T14:32:06.563Z,95.60
2023-08-29T14:34:40.673Z,95.70
2023-08-29T14:37:14.791Z,95.80
2023-08-29T14:39:50.453Z,95.30
2023-08-29T14:42:26.218Z,95.50
2023-08-29T14:45:01.061Z,95.70
2023-08-29T14:47:36.061Z,95.90
2023-08-29T14:50:12.841Z,96.10
2023-08-29T14:52:47.009Z,96.20
2023-08-29T14:55:24.083Z,96.20
2023-08-29T14:58:01.102Z,96.40
2023-08-29T15:00:35.285Z,96.40
2023-08-29T15:03:10.654Z,96.60
2023-08-29T15:05:44.992Z,96.70
2023-08-29T15:08:19.120Z,96.80
2023-08-29T15:10:53.601Z,97.10
2023-08-29T15:13:29.300Z,96.90
2023-08-29T15:16:06.205Z,96.90
2023-08-29T15:18:40.387Z,97.00
2023-08-29T15:21:14.501Z,97.00
2023-08-29T15:23:49.048Z,97.10
2023-08-29T15:26:23.174Z,97.00
2023-08-29T15:28:58.620Z,97.10
2023-08-29T15:31:32.755Z,97.20
2023-08-29T15:34:07.417Z,97.30
2023-08-29T15:36:41.498Z,97.40
2023-08-29T15:39:15.619Z,97.40
2023-08-29T15:41:49.744Z,97.40
2023-08-29T15:44:25.344Z,97.30
2023-08-29T15:46:59.479Z,97.30
2023-08-29T15:49:33.918Z,97.30
2023-08-29T15:52:08.125Z,97.30
2023-08-29T15:54:42.369Z,97.40
2023-08-29T15:57:17.776Z,97.40
2023-08-29T15:59:54.280Z,97.30
2023-08-29T16:02:28.422Z,97.40
2023-08-29T16:05:02.533Z,97.50
2023-08-29T16:07:36.717Z,97.50
2023-08-29T16:10:15.221Z,97.50
2023-08-29T16:12:49.443Z,97.50
2023-08-29T16:15:24.889Z,97.60
2023-08-29T16:17:59.095Z,97.70
2023-08-29T16:20:33.649Z,97.70
2023-08-29T16:23:07.752Z,97.80
2023-08-29T16:25:41.970Z,97.90
2023-08-29T16:28:16.154Z,97.90
2023-08-29T16:30:51.696Z,98.00
2023-08-29T16:33:26.479Z,98.10
2023-08-29T16:36:00.635Z,98.30
2023-08-29T16:38:34.775Z,98.50
2023-08-29T16:41:08.929Z,98.60
2023-08-29T16:43:43.124Z,98.60
2023-08-29T16:46:18.704Z,98.80
2023-08-29T16:48:52.846Z,98.90
2023-08-29T16:51:27.007Z,99.00
2023-08-29T16:54:01.194Z,99.00
2023-08-29T16:56:35.701Z,99.00
2023-08-29T16:59:09.935Z,99.10
2023-08-29T17:01:45.414Z,99.10
2023-08-29T17:04:19.548Z,99.20
2023-08-29T17:06:53.663Z,99.20
2023-08-29T17:09:27.787Z,99.30
2023-08-29T17:12:02.007Z,99.30
2023-08-29T17:14:36.244Z,99.50
2023-08-29T17:17:12.646Z,99.60
2023-08-29T17:19:47.035Z,99.60
2023-08-29T17:22:21.176Z,99.80
2023-08-29T17:24:55.382Z,99.90
2023-08-29T17:27:29.660Z,99.90
2023-08-29T17:30:06.457Z,99.90
2023-08-29T17:32:43.546Z,99.90
2023-08-29T17:35:17.989Z,99.90
2023-08-29T17:37:52.106Z,99.90
2023-08-29T17:40:26.247Z,99.90
2023-08-29T17:43:01.810Z,99.90
2023-08-29T17:45:45.585Z,99.90
2023-08-29T17:48:21.100Z,99.90
2023-08-29T17:50:59.307Z,99.90
2023-08-29T17:53:33.590Z,99.90
2023-08-29T17:56:08.069Z,99.90
2023-08-29T17:58:42.373Z,99.90
2023-08-29T18:01:16.627Z,99.90
2023-08-29T18:03:52.507Z,99.90
2023-08-29T18:06:27.164Z,99.90
2023-08-29T18:09:01.593Z,99.90
2023-08-29T18:11:35.803Z,99.90
2023-08-29T18:14:09.985Z,99.90
2023-08-29T18:16:45.160Z,99.90
2023-08-29T18:19:21.030Z,99.90
2023-08-29T18:21:55.162Z,99.90
2023-08-29T18:24:29.270Z,99.90
2023-08-29T18:27:03.458Z,99.90
2023-08-29T18:29:37.986Z,99.90
2023-08-29T18:32:12.191Z,99.90
2023-08-29T18:34:48.101Z,99.90
2023-08-29T18:37:22.471Z,99.90
2023-08-29T18:39:57.469Z,99.90
2023-08-29T18:42:31.659Z,99.90
2023-08-29T18:45:07.039Z,99.90
2023-08-29T18:47:41.310Z,99.90
2023-08-29T18:50:17.064Z,99.90
2023-08-29T18:52:51.277Z,99.90
2023-08-29T18:55:25.406Z,99.90
2023-08-29T18:58:00.756Z,99.90
2023-08-29T19:00:34.912Z,99.90
2023-08-29T19:03:12.325Z,99.90
2023-08-29T19:05:48.058Z,99.90
2023-08-29T19:08:22.249Z,99.90
2023-08-29T19:11:06.134Z,99.90
2023-08-29T19:13:40.457Z,99.90
2023-08-29T19:16:14.755Z,99.90
2023-08-29T19:18:49.062Z,99.90
2023-08-29T19:21:26.080Z,99.90
2023-08-29T19:24:00.931Z,99.90
2023-08-29T19:26:35.423Z,99.90
2023-08-29T19:29:09.560Z,99.90
2023-08-29T19:31:43.692Z,99.90
2023-08-29T19:34:18.051Z,99.90
2023-08-29T19:36:53.663Z,99.90
2023-08-29T19:39:29.709Z,99.90
2023-08-29T19:42:05.453Z,99.90
2023-08-29T19:44:40.179Z,99.90
2023-08-29T19:47:14.468Z,99.90
2023-08-29T19:49:48.581Z,99.90
2023-08-29T19:52:24.010Z,99.90
2023-08-29T19:54:58.279Z,99.90
2023-08-29T19:57:32.493Z,99.90
2023-08-29T20:00:08.535Z,99.90
2023-08-29T20:02:47.354Z,99.90
2023-08-29T20:05:21.660Z,99.90
2023-08-29T20:07:58.976Z,99.90
2023-08-29T20:10:35.185Z,99.90
2023-08-29T20:13:10.069Z,99.90
2023-08-29T20:15:44.500Z,99.90
2023-08-29T20:18:19.273Z,99.90
2023-08-29T20:20:53.377Z,99.90
2023-08-29T20:23:28.974Z,99.90
2023-08-29T20:26:03.292Z,99.90
2023-08-29T20:28:37.384Z,99.90
2023-08-29T20:31:12.216Z,99.90
2023-08-29T20:33:46.352Z,99.90
2023-08-29T20:36:20.599Z,99.90
2023-08-29T20:38:56.322Z,99.90
2023-08-29T20:41:30.523Z,99.90
2023-08-29T20:44:04.671Z,99.90
2023-08-29T20:46:38.896Z,99.90
2023-08-29T20:49:13.377Z,99.90
2023-08-29T20:51:47.620Z,99.90
2023-08-29T20:54:23.495Z,99.90
2023-08-29T20:56:57.571Z,99.90
2023-08-29T20:59:31.699Z,99.90
2023-08-29T21:02:06.197Z,99.90
2023-08-29T21:04:40.316Z,99.90
2023-08-29T21:07:14.545Z,99.90
2023-08-29T21:09:50.128Z,99.90
2023-08-29T21:12:24.348Z,99.90
2023-08-29T21:14:58.469Z,99.90
2023-08-29T21:17:34.640Z,99.90
2023-08-29T21:20:11.752Z,99.90
2023-08-29T21:22:45.821Z,99.90
2023-08-29T21:25:21.330Z,99.90
2023-08-29T21:27:55.433Z,99.90
2023-08-29T21:30:29.539Z,99.90
2023-08-29T21:33:03.814Z,99.90
2023-08-29T21:35:40.400Z,99.90
2023-08-29T21:38:14.538Z,99.90
2023-08-29T21:40:50.117Z,99.90
2023-08-29T21:43:24.780Z,99.90
2023-08-29T21:46:02.021Z,99.90
2023-08-29T21:48:36.269Z,99.90
2023-08-29T21:51:13.956Z,99.90
2023-08-29T21:53:48.050Z,99.90
2023-08-29T21:56:24.259Z,99.90
2023-08-29T21:58:58.358Z,99.90
2023-08-29T22:01:32.521Z,99.90
2023-08-29T22:04:07.851Z,99.90
2023-08-29T22:06:42.246Z,99.90
2023-08-29T22:09:16.367Z,99.90
2023-08-29T22:11:51.848Z,99.90
2023-08-29T22:14:26.507Z,99.90
2023-08-29T22:17:00.699Z,99.90
2023-08-29T22:19:34.853Z,99.90
2023-08-29T22:22:09.177Z,99.90
2023-08-29T22:24:44.040Z,99.90
2023-08-29T22:27:20.658Z,99.90
2023-08-29T22:29:54.802Z,99.90
2023-08-29T22:32:28.903Z,99.90
2023-08-29T22:35:03.285Z,99.90
2023-08-29T22:37:37.514Z,99.90
2023-08-29T22:40:13.227Z,99.90
2023-08-29T22:42:48.717Z,99.90
2023-08-29T22:45:22.809Z,99.90
2023-08-29T22:47:57.001Z,99.90
2023-08-29T22:50:31.094Z,99.90
2023-08-29T22:53:07.114Z,99.90
2023-08-29T22:55:41.211Z,99.90
2023-08-29T22:58:16.698Z,99.90
2023-08-29T23:00:50.821Z,99.90
2023-08-29T23:03:24.999Z,99.90
2023-08-29T23:05:59.290Z,99.90
2023-08-29T23:08:34.484Z,99.90
2023-08-29T23:11:08.685Z,99.90
2023-08-29T23:13:44.667Z,99.90
2023-08-29T23:16:18.780Z,99.90
2023-08-29T23:18:52.869Z,99.90
2023-08-29T23:21:27.120Z,99.90
2023-08-29T23:24:01.213Z,99.90
2023-08-29T23:26:35.794Z,99.90
2023-08-29T23:29:12.350Z,99.90
2023-08-29T23:31:48.164Z,99.90
2023-08-29T23:34:22.257Z,99.90
2023-08-29T23:36:56.348Z,99.90
2023-08-29T23:39:30.434Z,99.90
2023-08-29T23:42:04.889Z,99.90
2023-08-29T23:44:40.354Z,99.90
2023-08-29T23:47:14.716Z,99.90
2023-08-29T23:49:48.849Z,99.90
2023-08-29T23:52:22.956Z,99.90
2023-08-29T23:54:57.049Z,99.90
2023-08-29T23:57:31.172Z,99.90
